Portada
METAR-TAF:

METAR-TAF

Aeroports :

Manado, Indonèsia

latitud: 01-32N, longitud: 124-55E, altitud: 80 m

Observació

L'informe es va fer fa 27 minuts, a les 08:00 UTC
Vent 1 kt amb direcció variable
Temperatura 26°C
Humitat 94%
Pressió 1010 hPa
Visibilitat: 9000 m
Núvols disperses a una alçada de 2000 ft

METAR: WAMM 240800Z VRB01KT 9000 SCT020 26/25 Q1010 RERA NOSIG

Hora: 15:27 (08:27 UTC)

Pronòstic

L'informe es va fer fa 3 hores i 27 minuts, a les 05:00 UTC
Pronòstic vàlid del 24 a les 06 UTC al 25 a les 12 UTC
Vent 5 kt del Nord-Oest
Visibilitat: 9000 m
Núvols disperses a una alçada de 2100 ft
Temporalment
l' 24 a les 06 UTC al 24 a les 09 UTC
Visibilitat: 5000 m
Escasses núvols a una alçada de 1700 ft, Cumulonimbus.
pluja
Evolucionant progressivament
l' 24 a les 11 UTC al 24 a les 12 UTC
Vent 2 kt amb direcció variable

TAF: WAMM 240500Z 2406/2512 31005KT 9000 SCT021 TEMPO 2406/2409 5000 RA FEW017CB BECMG 2411/2412 VRB02KT

Observacions i pronòstics meteorològics de més de 4000 aeroports (METAR i TAF).

Les estacions disponibles són els punts grocs i vermells al mapa.

Posi el ratolí al punt desitjat per veure el nom de l'estació.

Feu clic per veure les observacions i els pronòstics meteorològics.

Per canviar el mapa: feu clic els botons verds amb una creu de color negre per apropar; al botó verd amb un guió per allunyar la imatge; o en les fletxes verdes per a mapes adjacents.


METAR-TAF: